sensor_id;sensor_type;location;lat;lon;timestamp;temperature;humidity
6627;DHT22;3349;49.830;8.748;2023-07-08T00:02:09;17.80;68.00
6627;DHT22;3349;49.830;8.748;2023-07-08T00:04:37;17.80;66.60
6627;DHT22;3349;49.830;8.748;2023-07-08T00:07:04;17.80;66.60
6627;DHT22;3349;49.830;8.748;2023-07-08T00:09:31;17.70;67.30
6627;DHT22;3349;49.830;8.748;2023-07-08T00:11:58;17.70;68.70
6627;DHT22;3349;49.830;8.748;2023-07-08T00:14:26;17.70;67.30
6627;DHT22;3349;49.830;8.748;2023-07-08T00:16:52;17.60;68.10
6627;DHT22;3349;49.830;8.748;2023-07-08T00:19:19;17.60;69.00
6627;DHT22;3349;49.830;8.748;2023-07-08T00:21:49;17.50;69.50
6627;DHT22;3349;49.830;8.748;2023-07-08T00:24:17;17.50;70.70
6627;DHT22;3349;49.830;8.748;2023-07-08T00:26:43;17.50;70.90
6627;DHT22;3349;49.830;8.748;2023-07-08T00:29:11;17.40;71.10
6627;DHT22;3349;49.830;8.748;2023-07-08T00:31:39;17.40;71.90
6627;DHT22;3349;49.830;8.748;2023-07-08T00:34:06;17.40;72.70
6627;DHT22;3349;49.830;8.748;2023-07-08T00:36:33;17.40;73.50
6627;DHT22;3349;49.830;8.748;2023-07-08T00:39:01;17.40;73.80
6627;DHT22;3349;49.830;8.748;2023-07-08T00:41:30;17.30;74.90
6627;DHT22;3349;49.830;8.748;2023-07-08T00:43:59;17.30;75.00
6627;DHT22;3349;49.830;8.748;2023-07-08T00:46:40;17.20;74.60
6627;DHT22;3349;49.830;8.748;2023-07-08T00:49:26;17.10;74.60
6627;DHT22;3349;49.830;8.748;2023-07-08T00:51:55;17.10;76.70
6627;DHT22;3349;49.830;8.748;2023-07-08T00:54:21;17.00;76.60
6627;DHT22;3349;49.830;8.748;2023-07-08T00:56:51;17.00;77.70
6627;DHT22;3349;49.830;8.748;2023-07-08T00:59:22;17.00;77.90
6627;DHT22;3349;49.830;8.748;2023-07-08T01:01:51;17.00;78.30
6627;DHT22;3349;49.830;8.748;2023-07-08T01:04:23;17.00;76.60
6627;DHT22;3349;49.830;8.748;2023-07-08T01:06:54;17.00;76.60
6627;DHT22;3349;49.830;8.748;2023-07-08T01:09:25;17.00;75.70
6627;DHT22;3349;49.830;8.748;2023-07-08T01:11:54;16.90;73.60
6627;DHT22;3349;49.830;8.748;2023-07-08T01:14:24;16.90;73.50
6627;DHT22;3349;49.830;8.748;2023-07-08T01:16:54;16.90;72.70
6627;DHT22;3349;49.830;8.748;2023-07-08T01:19:21;16.90;72.60
6627;DHT22;3349;49.830;8.748;2023-07-08T01:21:59;16.90;73.20
6627;DHT22;3349;49.830;8.748;2023-07-08T01:24:27;16.80;74.60
6627;DHT22;3349;49.830;8.748;2023-07-08T01:26:56;16.80;75.30
6627;DHT22;3349;49.830;8.748;2023-07-08T01:29:23;16.90;76.50
6627;DHT22;3349;49.830;8.748;2023-07-08T01:31:50;16.90;76.60
6627;DHT22;3349;49.830;8.748;2023-07-08T01:34:17;16.80;76.70
6627;DHT22;3349;49.830;8.748;2023-07-08T01:36:47;16.70;76.30
6627;DHT22;3349;49.830;8.748;2023-07-08T01:39:18;16.60;76.70
6627;DHT22;3349;49.830;8.748;2023-07-08T01:41:45;16.70;78.50
6627;DHT22;3349;49.830;8.748;2023-07-08T01:44:22;16.60;76.20
6627;DHT22;3349;49.830;8.748;2023-07-08T01:46:50;16.50;76.10
6627;DHT22;3349;49.830;8.748;2023-07-08T01:49:18;16.50;73.60
6627;DHT22;3349;49.830;8.748;2023-07-08T01:51:46;16.40;71.60
6627;DHT22;3349;49.830;8.748;2023-07-08T01:54:14;16.40;72.00
6627;DHT22;3349;49.830;8.748;2023-07-08T01:56:41;16.40;71.60
6627;DHT22;3349;49.830;8.748;2023-07-08T01:59:08;16.40;73.10
6627;DHT22;3349;49.830;8.748;2023-07-08T02:01:35;16.50;74.80
6627;DHT22;3349;49.830;8.748;2023-07-08T02:04:01;16.50;76.10
6627;DHT22;3349;49.830;8.748;2023-07-08T02:06:28;16.50;76.20
6627;DHT22;3349;49.830;8.748;2023-07-08T02:08:55;16.50;77.00
6627;DHT22;3349;49.830;8.748;2023-07-08T02:11:25;16.40;78.20
6627;DHT22;3349;49.830;8.748;2023-07-08T02:13:52;16.40;78.00
6627;DHT22;3349;49.830;8.748;2023-07-08T02:16:19;16.40;78.20
6627;DHT22;3349;49.830;8.748;2023-07-08T02:18:45;16.30;76.40
6627;DHT22;3349;49.830;8.748;2023-07-08T02:21:12;16.30;75.90
6627;DHT22;3349;49.830;8.748;2023-07-08T02:23:39;16.20;77.10
6627;DHT22;3349;49.830;8.748;2023-07-08T02:26:06;16.20;75.80
6627;DHT22;3349;49.830;8.748;2023-07-08T02:28:34;16.10;75.20
6627;DHT22;3349;49.830;8.748;2023-07-08T02:31:02;16.20;75.70
6627;DHT22;3349;49.830;8.748;2023-07-08T02:33:28;16.10;75.00
6627;DHT22;3349;49.830;8.748;2023-07-08T02:35:58;16.10;75.50
6627;DHT22;3349;49.830;8.748;2023-07-08T02:38:25;16.10;75.70
6627;DHT22;3349;49.830;8.748;2023-07-08T02:40:51;16.10;76.20
6627;DHT22;3349;49.830;8.748;2023-07-08T02:43:18;16.10;76.40
6627;DHT22;3349;49.830;8.748;2023-07-08T02:45:49;16.00;75.60
6627;DHT22;3349;49.830;8.748;2023-07-08T02:48:15;16.00;73.60
6627;DHT22;3349;49.830;8.748;2023-07-08T02:50:42;16.00;72.40
6627;DHT22;3349;49.830;8.748;2023-07-08T02:53:09;16.00;71.80
6627;DHT22;3349;49.830;8.748;2023-07-08T02:55:35;16.10;72.90
6627;DHT22;3349;49.830;8.748;2023-07-08T02:58:02;16.10;74.20
6627;DHT22;3349;49.830;8.748;2023-07-08T03:00:29;16.10;74.50
6627;DHT22;3349;49.830;8.748;2023-07-08T03:02:57;16.10;75.70
6627;DHT22;3349;49.830;8.748;2023-07-08T03:05:26;16.10;75.70
6627;DHT22;3349;49.830;8.748;2023-07-08T03:07:52;16.00;75.50
6627;DHT22;3349;49.830;8.748;2023-07-08T03:10:19;16.00;75.80
6627;DHT22;3349;49.830;8.748;2023-07-08T03:12:45;16.00;75.60
6627;DHT22;3349;49.830;8.748;2023-07-08T03:15:12;16.00;74.00
6627;DHT22;3349;49.830;8.748;2023-07-08T03:17:39;15.90;73.70
6627;DHT22;3349;49.830;8.748;2023-07-08T03:20:08;15.90;73.80
6627;DHT22;3349;49.830;8.748;2023-07-08T03:22:36;15.90;73.80
6627;DHT22;3349;49.830;8.748;2023-07-08T03:25:03;15.90;74.10
6627;DHT22;3349;49.830;8.748;2023-07-08T03:27:29;15.90;74.20
6627;DHT22;3349;49.830;8.748;2023-07-08T03:29:56;15.90;74.00
6627;DHT22;3349;49.830;8.748;2023-07-08T03:32:23;15.80;75.40
6627;DHT22;3349;49.830;8.748;2023-07-08T03:34:51;15.70;77.30
6627;DHT22;3349;49.830;8.748;2023-07-08T03:37:19;15.70;77.70
6627;DHT22;3349;49.830;8.748;2023-07-08T03:39:45;15.70;75.90
6627;DHT22;3349;49.830;8.748;2023-07-08T03:42:12;15.70;75.30
6627;DHT22;3349;49.830;8.748;2023-07-08T03:44:39;15.80;75.50
6627;DHT22;3349;49.830;8.748;2023-07-08T03:47:07;15.80;74.20
6627;DHT22;3349;49.830;8.748;2023-07-08T03:49:34;15.80;74.10
6627;DHT22;3349;49.830;8.748;2023-07-08T03:52:01;15.80;74.10
6627;DHT22;3349;49.830;8.748;2023-07-08T03:54:29;15.80;75.40
6627;DHT22;3349;49.830;8.748;2023-07-08T03:56:56;15.90;76.60
6627;DHT22;3349;49.830;8.748;2023-07-08T03:59:22;15.90;77.60
6627;DHT22;3349;49.830;8.748;2023-07-08T04:01:49;16.00;78.80
6627;DHT22;3349;49.830;8.748;2023-07-08T04:04:16;15.90;78.90
6627;DHT22;3349;49.830;8.748;2023-07-08T04:06:43;15.90;79.20
6627;DHT22;3349;49.830;8.748;2023-07-08T04:09:10;15.90;79.40
6627;DHT22;3349;49.830;8.748;2023-07-08T04:11:38;16.00;79.30
6627;DHT22;3349;49.830;8.748;2023-07-08T04:14:05;16.00;80.10
6627;DHT22;3349;49.830;8.748;2023-07-08T04:16:42;16.00;80.10
6627;DHT22;3349;49.830;8.748;2023-07-08T04:19:11;16.00;80.10
6627;DHT22;3349;49.830;8.748;2023-07-08T04:21:40;16.00;80.20
6627;DHT22;3349;49.830;8.748;2023-07-08T04:24:09;16.00;81.10
6627;DHT22;3349;49.830;8.748;2023-07-08T04:26:36;16.10;80.40
6627;DHT22;3349;49.830;8.748;2023-07-08T04:29:07;16.20;80.30
6627;DHT22;3349;49.830;8.748;2023-07-08T04:31:35;16.20;78.20
6627;DHT22;3349;49.830;8.748;2023-07-08T04:34:02;16.30;79.00
6627;DHT22;3349;49.830;8.748;2023-07-08T04:36:29;16.30;78.40
6627;DHT22;3349;49.830;8.748;2023-07-08T04:38:55;16.30;75.90
6627;DHT22;3349;49.830;8.748;2023-07-08T04:41:23;16.50;75.00
6627;DHT22;3349;49.830;8.748;2023-07-08T04:43:51;16.60;73.40
6627;DHT22;3349;49.830;8.748;2023-07-08T04:46:27;16.60;73.40
6627;DHT22;3349;49.830;8.748;2023-07-08T04:48:56;16.70;73.90
6627;DHT22;3349;49.830;8.748;2023-07-08T04:51:25;16.80;73.50
6627;DHT22;3349;49.830;8.748;2023-07-08T04:53:52;16.90;73.30
6627;DHT22;3349;49.830;8.748;2023-07-08T04:56:19;17.10;72.10
6627;DHT22;3349;49.830;8.748;2023-07-08T04:58:46;17.30;70.90
6627;DHT22;3349;49.830;8.748;2023-07-08T05:01:12;17.30;68.70
6627;DHT22;3349;49.830;8.748;2023-07-08T05:03:40;17.50;66.30
6627;DHT22;3349;49.830;8.748;2023-07-08T05:06:07;17.70;65.30
6627;DHT22;3349;49.830;8.748;2023-07-08T05:08:33;17.80;64.20
6627;DHT22;3349;49.830;8.748;2023-07-08T05:11:00;18.10;63.90
6627;DHT22;3349;49.830;8.748;2023-07-08T05:13:27;18.20;64.00
6627;DHT22;3349;49.830;8.748;2023-07-08T05:15:53;18.40;64.20
6627;DHT22;3349;49.830;8.748;2023-07-08T05:18:20;18.60;64.40
6627;DHT22;3349;49.830;8.748;2023-07-08T05:20:52;18.70;65.10
6627;DHT22;3349;49.830;8.748;2023-07-08T05:23:20;18.80;65.80
6627;DHT22;3349;49.830;8.748;2023-07-08T05:25:47;18.90;62.70
6627;DHT22;3349;49.830;8.748;2023-07-08T05:28:14;19.00;59.90
6627;DHT22;3349;49.830;8.748;2023-07-08T05:30:41;19.10;58.50
6627;DHT22;3349;49.830;8.748;2023-07-08T05:33:08;19.30;57.10
6627;DHT22;3349;49.830;8.748;2023-07-08T05:35:35;19.50;56.50
6627;DHT22;3349;49.830;8.748;2023-07-08T05:38:03;19.70;56.60
6627;DHT22;3349;49.830;8.748;2023-07-08T05:40:30;19.90;56.80
6627;DHT22;3349;49.830;8.748;2023-07-08T05:42:56;20.00;55.60
6627;DHT22;3349;49.830;8.748;2023-07-08T05:45:23;20.10;54.90
6627;DHT22;3349;49.830;8.748;2023-07-08T05:47:50;20.20;54.10
6627;DHT22;3349;49.830;8.748;2023-07-08T05:50:17;20.40;50.60
6627;DHT22;3349;49.830;8.748;2023-07-08T05:52:43;20.50;49.50
6627;DHT22;3349;49.830;8.748;2023-07-08T05:55:11;20.60;49.10
6627;DHT22;3349;49.830;8.748;2023-07-08T05:57:38;20.70;50.60
6627;DHT22;3349;49.830;8.748;2023-07-08T06:00:06;20.70;50.20
6627;DHT22;3349;49.830;8.748;2023-07-08T06:02:33;20.80;49.30
6627;DHT22;3349;49.830;8.748;2023-07-08T06:04:59;20.90;50.00
6627;DHT22;3349;49.830;8.748;2023-07-08T06:07:26;21.00;49.50
6627;DHT22;3349;49.830;8.748;2023-07-08T06:09:53;21.10;49.50
6627;DHT22;3349;49.830;8.748;2023-07-08T06:12:22;21.20;49.70
6627;DHT22;3349;49.830;8.748;2023-07-08T06:14:49;21.30;49.70
6627;DHT22;3349;49.830;8.748;2023-07-08T06:17:16;21.30;49.70
6627;DHT22;3349;49.830;8.748;2023-07-08T06:19:43;21.50;49.00
6627;DHT22;3349;49.830;8.748;2023-07-08T06:22:10;21.60;48.40
6627;DHT22;3349;49.830;8.748;2023-07-08T06:24:37;21.70;48.00
6627;DHT22;3349;49.830;8.748;2023-07-08T06:27:05;21.90;49.50
6627;DHT22;3349;49.830;8.748;2023-07-08T06:29:34;22.00;49.90
6627;DHT22;3349;49.830;8.748;2023-07-08T06:32:01;22.00;49.80
6627;DHT22;3349;49.830;8.748;2023-07-08T06:34:28;22.10;49.60
6627;DHT22;3349;49.830;8.748;2023-07-08T06:36:55;22.10;48.70
6627;DHT22;3349;49.830;8.748;2023-07-08T06:39:22;22.10;50.20
6627;DHT22;3349;49.830;8.748;2023-07-08T06:41:48;22.10;49.80
6627;DHT22;3349;49.830;8.748;2023-07-08T06:44:15;22.20;50.50
6627;DHT22;3349;49.830;8.748;2023-07-08T06:46:43;22.20;52.60
6627;DHT22;3349;49.830;8.748;2023-07-08T06:49:10;22.20;51.70
6627;DHT22;3349;49.830;8.748;2023-07-08T06:51:37;22.10;53.30
6627;DHT22;3349;49.830;8.748;2023-07-08T06:54:04;22.20;51.60
6627;DHT22;3349;49.830;8.748;2023-07-08T06:56:37;22.20;50.50
6627;DHT22;3349;49.830;8.748;2023-07-08T06:59:04;22.20;50.20
6627;DHT22;3349;49.830;8.748;2023-07-08T07:01:30;22.30;50.50
6627;DHT22;3349;49.830;8.748;2023-07-08T07:03:58;22.30;50.60
6627;DHT22;3349;49.830;8.748;2023-07-08T07:06:25;22.50;49.40
6627;DHT22;3349;49.830;8.748;2023-07-08T07:08:52;22.60;49.30
6627;DHT22;3349;49.830;8.748;2023-07-08T07:11:19;22.60;50.80
6627;DHT22;3349;49.830;8.748;2023-07-08T07:13:45;22.70;50.90
6627;DHT22;3349;49.830;8.748;2023-07-08T07:16:12;22.80;49.90
6627;DHT22;3349;49.830;8.748;2023-07-08T07:18:39;22.80;48.50
6627;DHT22;3349;49.830;8.748;2023-07-08T07:21:07;23.00;48.80
6627;DHT22;3349;49.830;8.748;2023-07-08T07:23:34;23.10;48.50
6627;DHT22;3349;49.830;8.748;2023-07-08T07:26:00;23.10;47.70
6627;DHT22;3349;49.830;8.748;2023-07-08T07:28:28;23.20;47.50
6627;DHT22;3349;49.830;8.748;2023-07-08T07:30:56;23.20;47.10
6627;DHT22;3349;49.830;8.748;2023-07-08T07:33:23;23.20;47.00
6627;DHT22;3349;49.830;8.748;2023-07-08T07:35:50;23.40;46.00
6627;DHT22;3349;49.830;8.748;2023-07-08T07:38:18;23.50;45.50
6627;DHT22;3349;49.830;8.748;2023-07-08T07:40:45;23.60;45.10
6627;DHT22;3349;49.830;8.748;2023-07-08T07:43:12;23.60;45.10
6627;DHT22;3349;49.830;8.748;2023-07-08T07:45:38;23.70;45.00
6627;DHT22;3349;49.830;8.748;2023-07-08T07:48:05;23.80;45.20
6627;DHT22;3349;49.830;8.748;2023-07-08T07:50:33;23.80;45.00
6627;DHT22;3349;49.830;8.748;2023-07-08T07:53:00;23.90;43.70
6627;DHT22;3349;49.830;8.748;2023-07-08T07:55:28;23.70;43.20
6627;DHT22;3349;49.830;8.748;2023-07-08T07:57:54;23.70;43.90
6627;DHT22;3349;49.830;8.748;2023-07-08T08:00:21;23.70;43.20
6627;DHT22;3349;49.830;8.748;2023-07-08T08:02:48;23.70;43.40
6627;DHT22;3349;49.830;8.748;2023-07-08T08:05:14;23.70;44.00
6627;DHT22;3349;49.830;8.748;2023-07-08T08:07:41;23.70;43.60
6627;DHT22;3349;49.830;8.748;2023-07-08T08:10:09;23.80;43.80
6627;DHT22;3349;49.830;8.748;2023-07-08T08:12:37;23.90;43.40
6627;DHT22;3349;49.830;8.748;2023-07-08T08:15:04;23.90;43.40
6627;DHT22;3349;49.830;8.748;2023-07-08T08:17:31;24.00;43.50
6627;DHT22;3349;49.830;8.748;2023-07-08T08:19:58;24.20;46.00
6627;DHT22;3349;49.830;8.748;2023-07-08T08:22:24;24.40;43.20
6627;DHT22;3349;49.830;8.748;2023-07-08T08:24:51;24.80;42.20
6627;DHT22;3349;49.830;8.748;2023-07-08T08:27:17;25.40;40.80
6627;DHT22;3349;49.830;8.748;2023-07-08T08:29:45;25.30;40.40
6627;DHT22;3349;49.830;8.748;2023-07-08T08:32:12;25.50;40.00
6627;DHT22;3349;49.830;8.748;2023-07-08T08:34:39;25.60;40.20
6627;DHT22;3349;49.830;8.748;2023-07-08T08:37:06;25.60;40.50
6627;DHT22;3349;49.830;8.748;2023-07-08T08:39:33;26.40;39.00
6627;DHT22;3349;49.830;8.748;2023-07-08T08:42:00;27.50;35.50
6627;DHT22;3349;49.830;8.748;2023-07-08T08:44:31;28.50;32.30
6627;DHT22;3349;49.830;8.748;2023-07-08T08:47:04;29.00;29.80
6627;DHT22;3349;49.830;8.748;2023-07-08T08:49:39;29.70;29.20
6627;DHT22;3349;49.830;8.748;2023-07-08T08:52:08;30.90;27.90
6627;DHT22;3349;49.830;8.748;2023-07-08T08:54:35;31.20;26.40
6627;DHT22;3349;49.830;8.748;2023-07-08T08:57:09;31.50;25.80
6627;DHT22;3349;49.830;8.748;2023-07-08T08:59:43;32.30;24.80
6627;DHT22;3349;49.830;8.748;2023-07-08T09:02:31;33.30;23.70
6627;DHT22;3349;49.830;8.748;2023-07-08T09:05:03;33.40;23.20
6627;DHT22;3349;49.830;8.748;2023-07-08T09:07:36;33.40;23.50
6627;DHT22;3349;49.830;8.748;2023-07-08T09:10:10;33.20;24.30
6627;DHT22;3349;49.830;8.748;2023-07-08T09:12:40;31.90;24.90
6627;DHT22;3349;49.830;8.748;2023-07-08T09:15:14;32.40;25.10
6627;DHT22;3349;49.830;8.748;2023-07-08T09:17:42;33.20;24.30
6627;DHT22;3349;49.830;8.748;2023-07-08T09:20:19;34.10;23.80
6627;DHT22;3349;49.830;8.748;2023-07-08T09:22:53;35.30;23.40
6627;DHT22;3349;49.830;8.748;2023-07-08T09:25:25;35.90;22.10
6627;DHT22;3349;49.830;8.748;2023-07-08T09:27:53;36.70;22.40
6627;DHT22;3349;49.830;8.748;2023-07-08T09:30:22;37.00;22.50
6627;DHT22;3349;49.830;8.748;2023-07-08T09:32:50;37.10;21.60
6627;DHT22;3349;49.830;8.748;2023-07-08T09:35:19;37.30;21.50
6627;DHT22;3349;49.830;8.748;2023-07-08T09:37:48;36.40;21.90
6627;DHT22;3349;49.830;8.748;2023-07-08T09:40:17;35.80;22.40
6627;DHT22;3349;49.830;8.748;2023-07-08T09:42:48;36.60;22.50
6627;DHT22;3349;49.830;8.748;2023-07-08T09:45:19;36.10;22.60
6627;DHT22;3349;49.830;8.748;2023-07-08T09:47:46;35.20;23.20
6627;DHT22;3349;49.830;8.748;2023-07-08T09:50:20;35.30;23.30
6627;DHT22;3349;49.830;8.748;2023-07-08T09:52:48;34.60;23.40
6627;DHT22;3349;49.830;8.748;2023-07-08T09:55:16;34.60;24.60
6627;DHT22;3349;49.830;8.748;2023-07-08T09:57:43;35.20;23.80
6627;DHT22;3349;49.830;8.748;2023-07-08T10:00:12;35.80;22.80
6627;DHT22;3349;49.830;8.748;2023-07-08T10:02:43;36.90;22.60
6627;DHT22;3349;49.830;8.748;2023-07-08T10:05:15;37.80;21.60
6627;DHT22;3349;49.830;8.748;2023-07-08T10:07:45;38.50;20.40
6627;DHT22;3349;49.830;8.748;2023-07-08T10:10:16;38.50;19.70
6627;DHT22;3349;49.830;8.748;2023-07-08T10:12:52;37.70;20.20
6627;DHT22;3349;49.830;8.748;2023-07-08T10:15:22;38.10;20.50
6627;DHT22;3349;49.830;8.748;2023-07-08T10:17:50;39.20;20.00
6627;DHT22;3349;49.830;8.748;2023-07-08T10:20:18;40.10;19.00
6627;DHT22;3349;49.830;8.748;2023-07-08T10:22:57;39.70;19.00
6627;DHT22;3349;49.830;8.748;2023-07-08T10:25:31;40.40;18.40
6627;DHT22;3349;49.830;8.748;2023-07-08T10:28:06;40.80;18.00
6627;DHT22;3349;49.830;8.748;2023-07-08T10:30:43;41.00;17.60
6627;DHT22;3349;49.830;8.748;2023-07-08T10:33:27;41.30;17.30
6627;DHT22;3349;49.830;8.748;2023-07-08T10:36:09;41.40;17.30
6627;DHT22;3349;49.830;8.748;2023-07-08T10:38:49;41.60;16.90
6627;DHT22;3349;49.830;8.748;2023-07-08T10:41:26;41.00;17.10
6627;DHT22;3349;49.830;8.748;2023-07-08T10:44:04;41.20;16.60
6627;DHT22;3349;49.830;8.748;2023-07-08T10:46:39;40.30;17.20
6627;DHT22;3349;49.830;8.748;2023-07-08T10:49:22;40.70;17.20
6627;DHT22;3349;49.830;8.748;2023-07-08T10:52:00;41.40;17.10
6627;DHT22;3349;49.830;8.748;2023-07-08T10:54:44;40.50;16.70
6627;DHT22;3349;49.830;8.748;2023-07-08T10:57:34;40.30;16.90
6627;DHT22;3349;49.830;8.748;2023-07-08T11:00:16;39.50;18.10
6627;DHT22;3349;49.830;8.748;2023-07-08T11:03:08;40.20;18.00
6627;DHT22;3349;49.830;8.748;2023-07-08T11:05:41;40.90;17.10
6627;DHT22;3349;49.830;8.748;2023-07-08T11:08:15;40.90;17.10
6627;DHT22;3349;49.830;8.748;2023-07-08T11:10:49;40.50;17.00
6627;DHT22;3349;49.830;8.748;2023-07-08T11:13:18;40.30;16.80
6627;DHT22;3349;49.830;8.748;2023-07-08T11:15:52;40.50;17.40
6627;DHT22;3349;49.830;8.748;2023-07-08T11:18:25;40.70;17.00
6627;DHT22;3349;49.830;8.748;2023-07-08T11:20:59;41.40;15.50
6627;DHT22;3349;49.830;8.748;2023-07-08T11:23:31;41.10;15.30
6627;DHT22;3349;49.830;8.748;2023-07-08T11:26:07;41.10;15.40
6627;DHT22;3349;49.830;8.748;2023-07-08T11:28:37;41.00;15.90
6627;DHT22;3349;49.830;8.748;2023-07-08T11:31:04;41.50;15.40
6627;DHT22;3349;49.830;8.748;2023-07-08T11:33:32;41.70;14.40
6627;DHT22;3349;49.830;8.748;2023-07-08T11:36:01;41.90;13.70
6627;DHT22;3349;49.830;8.748;2023-07-08T11:38:28;41.50;13.50
6627;DHT22;3349;49.830;8.748;2023-07-08T11:40:57;41.80;13.60
6627;DHT22;3349;49.830;8.748;2023-07-08T11:43:28;40.90;13.90
6627;DHT22;3349;49.830;8.748;2023-07-08T11:45:56;40.50;14.40
6627;DHT22;3349;49.830;8.748;2023-07-08T11:48:26;40.90;14.50
6627;DHT22;3349;49.830;8.748;2023-07-08T11:50:54;40.50;14.80
6627;DHT22;3349;49.830;8.748;2023-07-08T11:53:38;41.00;15.20
6627;DHT22;3349;49.830;8.748;2023-07-08T11:56:23;41.80;15.30
6627;DHT22;3349;49.830;8.748;2023-07-08T11:59:12;41.10;14.70
6627;DHT22;3349;49.830;8.748;2023-07-08T12:01:46;40.90;15.30
6627;DHT22;3349;49.830;8.748;2023-07-08T12:04:25;40.60;15.60
6627;DHT22;3349;49.830;8.748;2023-07-08T12:07:12;40.90;15.70
6627;DHT22;3349;49.830;8.748;2023-07-08T12:09:46;40.60;15.70
6627;DHT22;3349;49.830;8.748;2023-07-08T12:12:21;40.10;16.40
6627;DHT22;3349;49.830;8.748;2023-07-08T12:14:53;40.00;16.40
6627;DHT22;3349;49.830;8.748;2023-07-08T12:17:26;39.70;16.50
6627;DHT22;3349;49.830;8.748;2023-07-08T12:19:55;39.40;16.30
6627;DHT22;3349;49.830;8.748;2023-07-08T12:22:24;39.80;16.50
6627;DHT22;3349;49.830;8.748;2023-07-08T12:24:51;39.30;16.60
6627;DHT22;3349;49.830;8.748;2023-07-08T12:27:17;39.90;16.90
6627;DHT22;3349;49.830;8.748;2023-07-08T12:29:44;40.10;17.00
6627;DHT22;3349;49.830;8.748;2023-07-08T12:32:13;40.90;17.20
6627;DHT22;3349;49.830;8.748;2023-07-08T12:34:40;41.40;16.30
6627;DHT22;3349;49.830;8.748;2023-07-08T12:37:11;41.80;16.50
6627;DHT22;3349;49.830;8.748;2023-07-08T12:39:38;42.20;15.70
6627;DHT22;3349;49.830;8.748;2023-07-08T12:42:09;42.40;15.40
6627;DHT22;3349;49.830;8.748;2023-07-08T12:44:38;41.40;15.40
6627;DHT22;3349;49.830;8.748;2023-07-08T12:47:07;41.30;15.60
6627;DHT22;3349;49.830;8.748;2023-07-08T12:49:36;41.40;16.00
6627;DHT22;3349;49.830;8.748;2023-07-08T12:52:03;41.40;16.10
6627;DHT22;3349;49.830;8.748;2023-07-08T12:54:30;41.00;16.00
6627;DHT22;3349;49.830;8.748;2023-07-08T12:56:59;41.20;16.10
6627;DHT22;3349;49.830;8.748;2023-07-08T12:59:25;40.90;16.30
6627;DHT22;3349;49.830;8.748;2023-07-08T13:01:53;40.20;16.60
6627;DHT22;3349;49.830;8.748;2023-07-08T13:04:20;40.50;17.40
6627;DHT22;3349;49.830;8.748;2023-07-08T13:06:48;41.10;17.10
6627;DHT22;3349;49.830;8.748;2023-07-08T13:09:31;41.00;16.40
6627;DHT22;3349;49.830;8.748;2023-07-08T13:12:03;41.50;16.40
6627;DHT22;3349;49.830;8.748;2023-07-08T13:14:33;41.40;16.10
6627;DHT22;3349;49.830;8.748;2023-07-08T13:17:00;41.50;16.10
6627;DHT22;3349;49.830;8.748;2023-07-08T13:19:27;40.70;16.30
6627;DHT22;3349;49.830;8.748;2023-07-08T13:21:55;40.30;16.80
6627;DHT22;3349;49.830;8.748;2023-07-08T13:24:24;40.30;17.20
6627;DHT22;3349;49.830;8.748;2023-07-08T13:26:51;40.30;16.80
6627;DHT22;3349;49.830;8.748;2023-07-08T13:29:18;39.60;17.20
6627;DHT22;3349;49.830;8.748;2023-07-08T13:31:48;39.20;17.60
6627;DHT22;3349;49.830;8.748;2023-07-08T13:34:17;38.50;17.60
6627;DHT22;3349;49.830;8.748;2023-07-08T13:36:46;38.10;18.60
6627;DHT22;3349;49.830;8.748;2023-07-08T13:39:23;37.60;19.00
6627;DHT22;3349;49.830;8.748;2023-07-08T13:41:51;37.10;20.20
6627;DHT22;3349;49.830;8.748;2023-07-08T13:44:18;36.90;19.80
6627;DHT22;3349;49.830;8.748;2023-07-08T13:46:50;36.70;20.40
6627;DHT22;3349;49.830;8.748;2023-07-08T13:49:22;36.40;20.00
6627;DHT22;3349;49.830;8.748;2023-07-08T13:51:50;36.10;20.00
6627;DHT22;3349;49.830;8.748;2023-07-08T13:54:22;35.70;20.60
6627;DHT22;3349;49.830;8.748;2023-07-08T13:56:50;35.80;21.00
6627;DHT22;3349;49.830;8.748;2023-07-08T13:59:21;35.60;21.00
6627;DHT22;3349;49.830;8.748;2023-07-08T14:01:48;35.40;21.80
6627;DHT22;3349;49.830;8.748;2023-07-08T14:04:21;35.50;21.90
6627;DHT22;3349;49.830;8.748;2023-07-08T14:06:48;35.40;21.50
6627;DHT22;3349;49.830;8.748;2023-07-08T14:09:16;35.40;21.10
6627;DHT22;3349;49.830;8.748;2023-07-08T14:11:45;35.50;20.70
6627;DHT22;3349;49.830;8.748;2023-07-08T14:14:13;35.70;20.80
6627;DHT22;3349;49.830;8.748;2023-07-08T14:16:41;35.90;20.40
6627;DHT22;3349;49.830;8.748;2023-07-08T14:19:13;36.10;20.20
6627;DHT22;3349;49.830;8.748;2023-07-08T14:21:41;36.70;20.20
6627;DHT22;3349;49.830;8.748;2023-07-08T14:24:10;36.90;18.90
6627;DHT22;3349;49.830;8.748;2023-07-08T14:26:40;36.90;19.10
6627;DHT22;3349;49.830;8.748;2023-07-08T14:29:09;37.30;19.00
6627;DHT22;3349;49.830;8.748;2023-07-08T14:31:36;37.80;19.30
6627;DHT22;3349;49.830;8.748;2023-07-08T14:34:05;37.90;19.30
6627;DHT22;3349;49.830;8.748;2023-07-08T14:36:32;37.90;19.30
6627;DHT22;3349;49.830;8.748;2023-07-08T14:38:59;38.30;18.20
6627;DHT22;3349;49.830;8.748;2023-07-08T14:41:27;38.80;17.80
6627;DHT22;3349;49.830;8.748;2023-07-08T14:43:54;38.80;17.90
6627;DHT22;3349;49.830;8.748;2023-07-08T14:46:22;38.60;18.40
6627;DHT22;3349;49.830;8.748;2023-07-08T14:48:49;38.40;18.20
6627;DHT22;3349;49.830;8.748;2023-07-08T14:51:15;38.40;18.00
6627;DHT22;3349;49.830;8.748;2023-07-08T14:53:42;38.20;18.00
6627;DHT22;3349;49.830;8.748;2023-07-08T14:56:15;38.30;17.90
6627;DHT22;3349;49.830;8.748;2023-07-08T14:58:44;38.20;17.80
6627;DHT22;3349;49.830;8.748;2023-07-08T15:01:17;37.90;18.40
6627;DHT22;3349;49.830;8.748;2023-07-08T15:03:46;38.10;18.10
6627;DHT22;3349;49.830;8.748;2023-07-08T15:06:13;37.80;18.00
6627;DHT22;3349;49.830;8.748;2023-07-08T15:08:39;37.90;18.10
6627;DHT22;3349;49.830;8.748;2023-07-08T15:11:10;38.00;18.10
6627;DHT22;3349;49.830;8.748;2023-07-08T15:13:37;38.40;18.00
6627;DHT22;3349;49.830;8.748;2023-07-08T15:16:04;38.70;17.60
6627;DHT22;3349;49.830;8.748;2023-07-08T15:18:31;38.50;17.60
6627;DHT22;3349;49.830;8.748;2023-07-08T15:21:00;38.40;18.00
6627;DHT22;3349;49.830;8.748;2023-07-08T15:23:27;38.10;17.90
6627;DHT22;3349;49.830;8.748;2023-07-08T15:25:53;37.90;18.50
6627;DHT22;3349;49.830;8.748;2023-07-08T15:28:32;38.10;18.40
6627;DHT22;3349;49.830;8.748;2023-07-08T15:31:01;37.70;17.80
6627;DHT22;3349;49.830;8.748;2023-07-08T15:33:28;37.70;17.60
6627;DHT22;3349;49.830;8.748;2023-07-08T15:35:55;37.50;18.30
6627;DHT22;3349;49.830;8.748;2023-07-08T15:38:23;37.50;18.60
6627;DHT22;3349;49.830;8.748;2023-07-08T15:40:50;37.20;17.60
6627;DHT22;3349;49.830;8.748;2023-07-08T15:43:18;36.80;18.00
6627;DHT22;3349;49.830;8.748;2023-07-08T15:45:45;36.70;18.40
6627;DHT22;3349;49.830;8.748;2023-07-08T15:48:13;36.40;18.30
6627;DHT22;3349;49.830;8.748;2023-07-08T15:50:41;36.40;18.20
6627;DHT22;3349;49.830;8.748;2023-07-08T15:53:08;36.30;18.60
6627;DHT22;3349;49.830;8.748;2023-07-08T15:55:37;35.70;18.20
6627;DHT22;3349;49.830;8.748;2023-07-08T15:58:06;35.20;19.20
6627;DHT22;3349;49.830;8.748;2023-07-08T16:00:38;34.70;20.00
6627;DHT22;3349;49.830;8.748;2023-07-08T16:03:09;34.40;20.80
6627;DHT22;3349;49.830;8.748;2023-07-08T16:05:37;34.00;21.20
6627;DHT22;3349;49.830;8.748;2023-07-08T16:08:04;33.60;21.40
6627;DHT22;3349;49.830;8.748;2023-07-08T16:10:31;33.40;21.40
6627;DHT22;3349;49.830;8.748;2023-07-08T16:13:01;33.10;22.00
6627;DHT22;3349;49.830;8.748;2023-07-08T16:15:31;33.00;21.70